createdAt,value
2018-04-07T00:01:54.043Z,5.03
2018-04-07T00:04:21.793Z,5.63
2018-04-07T00:06:49.455Z,5.60
2018-04-07T00:09:17.305Z,4.80
2018-04-07T00:11:45.293Z,5.43
2018-04-07T00:14:12.804Z,4.23
2018-04-07T00:16:40.770Z,5.13
2018-04-07T00:19:08.278Z,5.03
2018-04-07T00:21:35.794Z,5.60
2018-04-07T00:24:03.299Z,5.40
2018-04-07T00:26:30.830Z,5.40
2018-04-07T00:28:58.471Z,5.00
2018-04-07T00:31:26.004Z,4.57
2018-04-07T00:33:54.010Z,5.27
2018-04-07T00:36:21.597Z,3.67
2018-04-07T00:38:50.486Z,5.27
2018-04-07T00:41:18.180Z,4.90
2018-04-07T00:43:46.031Z,4.60
2018-04-07T00:46:13.660Z,4.27
2018-04-07T00:48:41.329Z,4.80
2018-04-07T00:51:08.901Z,4.43
2018-04-07T00:53:36.422Z,4.80
2018-04-07T00:56:03.927Z,3.93
2018-04-07T00:58:31.488Z,4.50
2018-04-07T01:00:59.756Z,4.50
2018-04-07T01:03:27.243Z,4.30
2018-04-07T01:05:54.833Z,4.60
2018-04-07T01:08:22.322Z,3.57
2018-04-07T01:10:49.830Z,4.20
2018-04-07T01:13:17.459Z,3.47
2018-04-07T01:15:44.994Z,4.40
2018-04-07T01:18:12.481Z,4.43
2018-04-07T01:20:40.826Z,4.10
2018-04-07T01:23:08.444Z,3.60
2018-04-07T01:25:35.969Z,4.23
2018-04-07T01:28:03.777Z,4.17
2018-04-07T01:30:31.425Z,4.00
2018-04-07T01:32:58.910Z,3.67
2018-04-07T01:35:26.475Z,3.70
2018-04-07T01:37:54.135Z,3.70
2018-04-07T01:40:21.614Z,4.50
2018-04-07T01:42:49.267Z,5.10
2018-04-07T01:45:16.959Z,4.30
2018-04-07T01:47:45.068Z,4.07
2018-04-07T01:50:12.578Z,4.33
2018-04-07T01:52:40.060Z,4.37
2018-04-07T01:55:07.980Z,4.57
2018-04-07T01:57:35.734Z,4.87
2018-04-07T02:00:03.284Z,4.27
2018-04-07T02:02:30.950Z,4.80
2018-04-07T02:04:58.665Z,4.87
2018-04-07T02:07:26.290Z,4.30
2018-04-07T02:09:53.796Z,3.80
2018-04-07T02:12:21.308Z,4.10
2018-04-07T02:14:48.877Z,4.27
2018-04-07T02:17:16.588Z,4.43
2018-04-07T02:19:44.407Z,4.40
2018-04-07T02:22:11.915Z,4.43
2018-04-07T02:24:40.186Z,4.60
2018-04-07T02:27:08.496Z,4.70
2018-04-07T02:29:35.993Z,4.50
2018-04-07T02:32:03.478Z,4.10
2018-04-07T02:34:31.010Z,4.23
2018-04-07T02:36:58.515Z,3.83
2018-04-07T02:39:26.048Z,4.20
2018-04-07T02:41:53.536Z,4.70
2018-04-07T02:44:21.309Z,4.33
2018-04-07T02:46:48.808Z,4.53
2018-04-07T02:49:16.300Z,4.87
2018-04-07T02:51:44.587Z,4.27
2018-04-07T02:54:12.138Z,4.13
2018-04-07T02:56:39.796Z,4.20
2018-04-07T02:59:07.333Z,5.07
2018-04-07T03:01:34.878Z,4.30
2018-04-07T03:04:02.393Z,4.60
2018-04-07T03:06:29.898Z,4.23
2018-04-07T03:08:57.402Z,4.97
2018-04-07T03:11:25.660Z,5.20
2018-04-07T03:13:53.572Z,3.87
2018-04-07T03:16:21.048Z,4.27
2018-04-07T03:18:48.570Z,5.23
2018-04-07T03:21:16.614Z,4.10
2018-04-07T03:23:44.098Z,4.00
2018-04-07T03:26:11.610Z,5.30
2018-04-07T03:28:39.290Z,4.50
2018-04-07T03:31:06.905Z,4.80
2018-04-07T03:33:34.404Z,4.40
2018-04-07T03:36:02.693Z,5.07
2018-04-07T03:38:30.226Z,4.33
2018-04-07T03:40:57.841Z,4.63
2018-04-07T03:43:25.364Z,4.50
2018-04-07T03:45:53.913Z,4.33
2018-04-07T03:48:22.072Z,4.53
2018-04-07T03:50:49.731Z,4.43
2018-04-07T03:53:17.264Z,4.37
2018-04-07T03:55:45.537Z,5.40
2018-04-07T03:58:13.805Z,4.67
2018-04-07T04:00:41.334Z,5.83
2018-04-07T04:03:08.936Z,5.20
2018-04-07T04:05:36.447Z,5.30
2018-04-07T04:08:04.750Z,4.93
2018-04-07T04:10:32.255Z,4.77
2018-04-07T04:12:59.762Z,4.90
2018-04-07T04:15:27.380Z,4.77
2018-04-07T04:17:54.951Z,5.43
2018-04-07T04:20:22.489Z,4.60
2018-04-07T04:22:49.977Z,5.87
2018-04-07T04:25:17.469Z,6.03
2018-04-07T04:27:45.069Z,5.20
2018-04-07T04:30:12.677Z,4.67
2018-04-07T04:32:40.175Z,5.17
2018-04-07T04:35:08.564Z,4.80
2018-04-07T04:37:36.281Z,5.10
2018-04-07T04:40:04.413Z,5.80
2018-04-07T04:42:31.909Z,4.80
2018-04-07T04:44:59.801Z,5.03
2018-04-07T04:47:27.372Z,5.60
2018-04-07T04:49:55.638Z,5.03
2018-04-07T04:52:23.193Z,5.20
2018-04-07T04:54:51.009Z,5.73
2018-04-07T04:57:18.501Z,5.83
2018-04-07T04:59:46.109Z,6.37
2018-04-07T05:02:13.600Z,6.53
2018-04-07T05:04:41.106Z,7.10
2018-04-07T05:07:09.385Z,7.03
2018-04-07T05:09:37.683Z,8.00
2018-04-07T05:12:05.208Z,8.10
2018-04-07T05:14:32.741Z,8.00
2018-04-07T05:17:00.397Z,7.93
2018-04-07T05:19:28.138Z,7.10
2018-04-07T05:21:55.627Z,8.23
2018-04-07T05:24:23.470Z,8.33
2018-04-07T05:26:51.121Z,8.00
2018-04-07T05:29:19.170Z,7.33
2018-04-07T05:31:46.732Z,7.63
2018-04-07T05:34:14.237Z,6.90
2018-04-07T05:36:41.908Z,7.03
2018-04-07T05:39:09.831Z,8.03
2018-04-07T05:41:37.422Z,7.53
2018-04-07T05:44:05.103Z,7.40
2018-04-07T05:46:32.689Z,8.23
2018-04-07T05:49:00.469Z,8.17
2018-04-07T05:51:28.929Z,8.40
2018-04-07T05:53:56.440Z,8.37
2018-04-07T05:56:24.156Z,7.70
2018-04-07T05:58:52.088Z,7.50
2018-04-07T06:01:19.722Z,8.47
2018-04-07T06:03:47.216Z,8.63
2018-04-07T06:06:14.940Z,8.40
2018-04-07T06:08:42.716Z,8.13
2018-04-07T06:11:10.684Z,8.33
2018-04-07T06:13:38.354Z,7.97
2018-04-07T06:16:05.858Z,7.73
2018-04-07T06:18:33.370Z,8.07
2018-04-07T06:21:00.911Z,7.77
2018-04-07T06:23:28.433Z,8.13
2018-04-07T06:25:56.065Z,7.83
2018-04-07T06:28:23.618Z,7.87
2018-04-07T06:30:52.004Z,7.40
2018-04-07T06:33:19.826Z,7.23
2018-04-07T06:35:47.348Z,7.33
2018-04-07T06:38:14.838Z,7.40
2018-04-07T06:40:43.166Z,6.93
2018-04-07T06:43:10.712Z,7.30
2018-04-07T06:45:38.216Z,7.47
2018-04-07T06:48:06.111Z,7.87
2018-04-07T06:50:33.592Z,7.73
2018-04-07T06:53:01.106Z,7.00
2018-04-07T06:55:28.699Z,7.37
2018-04-07T06:57:56.398Z,7.27
2018-04-07T07:00:24.005Z,7.57
2018-04-07T07:02:54.063Z,7.73
2018-04-07T07:05:21.653Z,7.45
2018-04-07T07:07:49.494Z,7.53
2018-04-07T07:10:17.115Z,7.47
2018-04-07T07:12:44.690Z,7.12
2018-04-07T07:15:12.355Z,7.82
2018-04-07T07:17:39.925Z,7.18
2018-04-07T07:20:07.530Z,7.00
2018-04-07T07:22:35.410Z,7.60
2018-04-07T07:25:02.949Z,7.22
2018-04-07T07:27:30.622Z,7.78
2018-04-07T07:29:58.237Z,7.00
2018-04-07T07:32:25.936Z,7.37
2018-04-07T07:34:53.859Z,6.20
2018-04-07T07:37:21.410Z,7.00
2018-04-07T07:39:49.700Z,7.25
2018-04-07T07:42:17.308Z,7.37
2018-04-07T07:44:45.569Z,11.35
2018-04-07T07:47:13.286Z,7.75
2018-04-07T07:49:40.866Z,7.20
2018-04-07T07:52:08.426Z,6.87
2018-04-07T07:54:35.950Z,7.30
2018-04-07T07:57:03.489Z,6.32
2018-04-07T07:59:31.083Z,6.82
2018-04-07T08:01:59.251Z,6.57
2018-04-07T08:04:27.578Z,6.90
2018-04-07T08:06:55.159Z,7.33
2018-04-07T08:09:22.669Z,6.10
2018-04-07T08:11:50.204Z,6.80
2018-04-07T08:14:18.112Z,6.40
2018-04-07T08:16:45.625Z,6.70
2018-04-07T08:19:13.140Z,6.20
2018-04-07T08:21:41.376Z,6.23
2018-04-07T08:24:08.939Z,6.03
2018-04-07T08:26:36.508Z,6.43
2018-04-07T08:29:04.277Z,6.30
2018-04-07T08:31:31.836Z,6.50
2018-04-07T08:33:59.514Z,6.13
2018-04-07T08:36:28.298Z,6.80
2018-04-07T08:38:55.827Z,6.00
2018-04-07T08:41:24.268Z,6.77
2018-04-07T08:43:51.777Z,6.70
2018-04-07T08:46:20.057Z,7.23
2018-04-07T08:48:47.620Z,6.70
2018-04-07T08:51:15.247Z,6.77
2018-04-07T08:53:43.757Z,6.03
2018-04-07T08:56:12.059Z,6.43
2018-04-07T08:58:39.581Z,5.77
2018-04-07T09:01:07.079Z,5.60
2018-04-07T09:03:34.675Z,6.27
2018-04-07T09:06:02.407Z,6.40
2018-04-07T09:08:29.923Z,6.37
2018-04-07T09:10:58.838Z,6.33
2018-04-07T09:13:26.336Z,6.30
2018-04-07T09:15:54.088Z,5.53
2018-04-07T09:18:21.697Z,6.17
2018-04-07T09:20:49.290Z,6.50
2018-04-07T09:23:17.006Z,6.03
2018-04-07T09:25:44.660Z,5.70
2018-04-07T09:28:12.244Z,6.43
2018-04-07T09:30:40.662Z,5.80
2018-04-07T09:33:08.201Z,6.00
2018-04-07T09:35:35.715Z,5.87
2018-04-07T09:38:03.269Z,6.63
2018-04-07T09:40:30.864Z,5.90
2018-04-07T09:42:58.369Z,6.07
2018-04-07T09:45:25.876Z,6.40
2018-04-07T09:47:53.414Z,6.50
2018-04-07T09:50:21.099Z,6.10
2018-04-07T09:52:48.642Z,6.20
2018-04-07T09:55:16.136Z,6.47
2018-04-07T09:57:43.923Z,6.23
2018-04-07T10:00:11.464Z,6.10
2018-04-07T10:02:38.970Z,6.03
2018-04-07T10:05:06.686Z,5.83
2018-04-07T10:07:34.277Z,5.67
2018-04-07T10:10:01.864Z,5.70
2018-04-07T10:12:29.486Z,5.90
2018-04-07T10:14:57.118Z,6.83
2018-04-07T10:17:24.640Z,6.07
2018-04-07T10:19:52.237Z,5.97
2018-04-07T10:22:20.516Z,6.57
2018-04-07T10:24:49.349Z,6.60
2018-04-07T10:27:16.944Z,5.77
2018-04-07T10:29:44.763Z,6.27
2018-04-07T10:32:12.308Z,5.87
2018-04-07T10:34:40.294Z,6.27
2018-04-07T10:37:07.955Z,5.10
2018-04-07T10:39:35.634Z,5.63
2018-04-07T10:42:03.171Z,5.90
2018-04-07T10:44:30.859Z,5.60
2018-04-07T10:46:58.377Z,5.77
2018-04-07T10:49:26.645Z,5.10
2018-04-07T10:51:55.160Z,5.37
2018-04-07T10:54:23.579Z,5.37
2018-04-07T10:56:51.145Z,5.17
2018-04-07T10:59:18.773Z,5.83
2018-04-07T11:01:47.515Z,5.27
2018-04-07T11:04:15.054Z,4.90
2018-04-07T11:06:42.683Z,5.50
2018-04-07T11:09:10.409Z,6.13
2018-04-07T11:11:38.720Z,5.10
2018-04-07T11:14:06.345Z,5.80
2018-04-07T11:16:34.038Z,5.50
2018-04-07T11:19:01.636Z,5.80
2018-04-07T11:21:29.134Z,4.73
2018-04-07T11:23:56.701Z,5.23
2018-04-07T11:26:24.261Z,5.10
2018-04-07T11:28:51.816Z,4.83
2018-04-07T11:31:21.793Z,5.97
2018-04-07T11:33:49.913Z,6.07
2018-04-07T11:36:17.502Z,5.90
2018-04-07T11:38:46.181Z,5.17
2018-04-07T11:41:13.789Z,5.50
2018-04-07T11:43:41.594Z,5.53
2018-04-07T11:46:09.963Z,5.60
2018-04-07T11:48:38.301Z,5.00
2018-04-07T11:51:05.911Z,5.13
2018-04-07T11:53:33.443Z,5.30
2018-04-07T11:56:01.794Z,5.47
2018-04-07T11:58:29.968Z,5.33
2018-04-07T12:00:57.514Z,5.43
2018-04-07T12:03:25.602Z,5.10
2018-04-07T12:05:53.205Z,6.03
2018-04-07T12:08:20.732Z,5.30
2018-04-07T12:10:48.353Z,5.90
2018-04-07T12:13:15.906Z,5.53
2018-04-07T12:15:44.305Z,5.27
2018-04-07T12:18:11.818Z,4.67
2018-04-07T12:20:39.608Z,4.97
2018-04-07T12:23:07.277Z,5.17
2018-04-07T12:25:35.523Z,5.40
2018-04-07T12:28:03.265Z,5.17
2018-04-07T12:30:30.789Z,4.63
2018-04-07T12:32:58.364Z,5.53
2018-04-07T12:35:25.879Z,5.23
2018-04-07T12:37:53.460Z,5.27
2018-04-07T12:40:21.168Z,5.63
2018-04-07T12:42:48.687Z,4.40
2018-04-07T12:45:16.270Z,5.33
2018-04-07T12:47:43.811Z,5.10
2018-04-07T12:50:11.322Z,4.83
2018-04-07T12:52:39.642Z,5.60
2018-04-07T12:55:07.334Z,5.93
2018-04-07T12:57:34.897Z,4.93
2018-04-07T13:00:02.513Z,4.60
2018-04-07T13:02:30.124Z,4.60
2018-04-07T13:04:57.800Z,4.60
2018-04-07T13:07:26.091Z,4.77
2018-04-07T13:09:53.680Z,3.80
2018-04-07T13:12:21.654Z,4.73
2018-04-07T13:14:49.250Z,5.33
2018-04-07T13:17:16.810Z,4.97
2018-04-07T13:19:44.487Z,4.23
2018-04-07T13:22:12.017Z,4.50
2018-04-07T13:24:39.863Z,4.37
2018-04-07T13:27:07.386Z,4.03
2018-04-07T13:29:35.662Z,4.87
2018-04-07T13:32:03.998Z,4.83
2018-04-07T13:34:31.570Z,4.67
2018-04-07T13:36:59.146Z,4.97
2018-04-07T13:39:26.746Z,4.97
2018-04-07T13:41:55.232Z,4.27
2018-04-07T13:44:22.868Z,3.90
2018-04-07T13:46:51.189Z,4.63
2018-04-07T13:49:18.811Z,4.83
2018-04-07T13:51:47.116Z,4.60
2018-04-07T13:54:14.771Z,4.87
2018-04-07T13:56:43.094Z,4.47
2018-04-07T13:59:10.681Z,4.33
2018-04-07T14:01:38.804Z,4.70
2018-04-07T14:04:07.151Z,4.10
2018-04-07T14:06:34.660Z,4.10
2018-04-07T14:09:02.287Z,4.17
2018-04-07T14:11:29.958Z,4.30
2018-04-07T14:13:58.750Z,4.20
2018-04-07T14:16:26.300Z,4.00
2018-04-07T14:18:53.997Z,4.73
2018-04-07T14:21:22.504Z,4.20
2018-04-07T14:23:50.886Z,4.70
2018-04-07T14:26:19.285Z,4.47
2018-04-07T14:28:46.769Z,4.03
2018-04-07T14:31:14.807Z,4.73
2018-04-07T14:33:42.308Z,4.80
2018-04-07T14:36:10.521Z,4.33
2018-04-07T14:38:38.316Z,4.00
2018-04-07T14:41:05.839Z,4.47
2018-04-07T14:43:33.368Z,4.57
2018-04-07T14:46:00.875Z,4.27
2018-04-07T14:48:29.716Z,5.03
2018-04-07T14:50:57.442Z,4.83
2018-04-07T14:53:25.065Z,4.53
2018-04-07T14:55:52.687Z,4.37
2018-04-07T14:58:20.312Z,4.03
2018-04-07T15:00:48.607Z,4.73
2018-04-07T15:03:16.102Z,4.70
2018-04-07T15:05:43.902Z,4.73
2018-04-07T15:08:11.562Z,4.50
2018-04-07T15:10:39.087Z,4.37
2018-04-07T15:13:06.722Z,4.40
2018-04-07T15:15:34.548Z,4.70
2018-04-07T15:18:02.100Z,5.33
2018-04-07T15:20:29.699Z,4.80
2018-04-07T15:22:57.202Z,4.53
2018-04-07T15:25:24.833Z,4.60
2018-04-07T15:27:52.366Z,4.70
2018-04-07T15:30:19.905Z,4.47
2018-04-07T15:32:47.513Z,4.73
2018-04-07T15:35:15.032Z,4.73
2018-04-07T15:37:43.543Z,4.60
2018-04-07T15:40:11.481Z,4.67
2018-04-07T15:42:39.129Z,5.00
2018-04-07T15:45:08.105Z,4.90
2018-04-07T15:47:35.624Z,4.53
2018-04-07T15:50:03.131Z,4.60
2018-04-07T15:52:30.861Z,4.83
2018-04-07T15:54:59.324Z,5.00
2018-04-07T15:57:27.027Z,4.90
2018-04-07T15:59:54.573Z,4.73
2018-04-07T16:02:22.097Z,4.30
2018-04-07T16:04:49.753Z,4.47
2018-04-07T16:07:18.101Z,4.90
2018-04-07T16:09:45.628Z,4.67
2018-04-07T16:12:14.168Z,4.47
2018-04-07T16:14:41.700Z,4.03
2018-04-07T16:17:09.537Z,3.80
2018-04-07T16:19:37.671Z,4.57
2018-04-07T16:22:05.340Z,4.20
2018-04-07T16:24:33.622Z,4.00
2018-04-07T16:27:01.148Z,4.13
2018-04-07T16:29:28.743Z,4.53
2018-04-07T16:31:56.680Z,4.00
2018-04-07T16:34:24.431Z,4.40
2018-04-07T16:36:51.999Z,4.73
2018-04-07T16:39:19.722Z,4.67
2018-04-07T16:41:48.522Z,4.10
2018-04-07T16:44:16.116Z,4.53
2018-04-07T16:46:43.763Z,4.07
2018-04-07T16:49:11.987Z,4.43
2018-04-07T16:51:40.752Z,4.70
2018-04-07T16:54:08.468Z,4.63
2018-04-07T16:56:35.991Z,4.73
2018-04-07T16:59:03.506Z,4.93
2018-04-07T17:01:31.109Z,4.50
2018-04-07T17:03:59.414Z,4.37
2018-04-07T17:06:26.965Z,4.93
2018-04-07T17:08:55.247Z,4.40
2018-04-07T17:11:22.775Z,4.87
2018-04-07T17:13:50.469Z,3.60
2018-04-07T17:16:18.008Z,4.37
2018-04-07T17:18:45.544Z,5.13
2018-04-07T17:21:13.070Z,5.07
2018-04-07T17:23:41.444Z,5.43
2018-04-07T17:26:08.962Z,4.40
2018-04-07T17:28:37.788Z,4.83
2018-04-07T17:31:05.356Z,5.00
2018-04-07T17:33:33.419Z,5.23
2018-04-07T17:36:00.924Z,5.30
2018-04-07T17:38:28.617Z,5.20
2018-04-07T17:40:56.165Z,5.17
2018-04-07T17:43:23.701Z,4.53
2018-04-07T17:45:51.241Z,5.17
2018-04-07T17:48:18.958Z,5.03
2018-04-07T17:50:46.518Z,5.87
2018-04-07T17:53:14.029Z,4.80
2018-04-07T17:55:41.715Z,5.20
2018-04-07T17:58:09.234Z,5.50
2018-04-07T18:00:36.798Z,4.90
2018-04-07T18:03:05.203Z,5.60
2018-04-07T18:05:33.619Z,5.10
2018-04-07T18:08:01.129Z,5.00
2018-04-07T18:10:28.716Z,5.73
2018-04-07T18:12:56.256Z,5.73
2018-04-07T18:15:23.835Z,6.20
2018-04-07T18:17:51.356Z,5.73
2018-04-07T18:20:18.909Z,6.20
2018-04-07T18:22:46.848Z,6.10
2018-04-07T18:25:15.226Z,6.03
2018-04-07T18:27:43.495Z,6.33
2018-04-07T18:30:11.036Z,6.17
2018-04-07T18:32:38.601Z,6.43
2018-04-07T18:35:06.172Z,6.87
2018-04-07T18:37:34.483Z,7.17
2018-04-07T18:40:02.144Z,6.77
2018-04-07T18:42:30.124Z,6.80
2018-04-07T18:44:57.688Z,6.90
2018-04-07T18:47:25.333Z,7.40
2018-04-07T18:49:53.028Z,7.47
2018-04-07T18:52:20.959Z,7.47
2018-04-07T18:54:48.988Z,7.30
2018-04-07T18:57:16.518Z,9.03
2018-04-07T18:59:44.209Z,8.30
2018-04-07T19:02:12.102Z,9.17
2018-04-07T19:04:40.322Z,8.63
2018-04-07T19:07:07.910Z,8.53
2018-04-07T19:09:35.603Z,10.33
2018-04-07T19:12:03.707Z,8.73
2018-04-07T19:14:31.530Z,9.70
2018-04-07T19:17:00.280Z,8.90
2018-04-07T19:19:27.938Z,10.00
2018-04-07T19:21:55.809Z,9.83
2018-04-07T19:24:23.367Z,9.40
2018-04-07T19:26:50.944Z,10.63
2018-04-07T19:29:19.468Z,10.33
2018-04-07T19:31:48.094Z,10.80
2018-04-07T19:34:15.814Z,10.30
2018-04-07T19:36:44.067Z,10.77
2018-04-07T19:39:12.274Z,11.00
2018-04-07T19:41:39.873Z,11.13
2018-04-07T19:44:08.305Z,11.70
2018-04-07T19:46:36.614Z,10.73
2018-04-07T19:49:04.333Z,11.67
2018-04-07T19:51:31.921Z,12.27
2018-04-07T19:53:59.444Z,11.93
2018-04-07T19:56:26.996Z,12.30
2018-04-07T19:58:54.764Z,10.77
2018-04-07T20:01:22.715Z,11.83
2018-04-07T20:03:50.284Z,12.23
2018-04-07T20:06:19.519Z,12.57
2018-04-07T20:08:47.793Z,11.67
2018-04-07T20:11:15.368Z,12.60
2018-04-07T20:13:43.992Z,13.23
2018-04-07T20:16:11.669Z,13.30
2018-04-07T20:18:39.182Z,12.53
2018-04-07T20:21:06.835Z,12.33
2018-04-07T20:23:35.204Z,13.37
2018-04-07T20:26:02.796Z,13.63
2018-04-07T20:28:30.341Z,13.43
2018-04-07T20:30:58.020Z,12.97
2018-04-07T20:33:25.893Z,12.33
2018-04-07T20:35:54.187Z,13.60
2018-04-07T20:38:21.738Z,12.40
2018-04-07T20:40:57.168Z,12.87
2018-04-07T20:43:24.850Z,13.70
2018-04-07T20:45:52.394Z,12.23
2018-04-07T20:48:19.923Z,12.10
2018-04-07T20:50:48.364Z,13.30
2018-04-07T20:53:15.996Z,12.40
2018-04-07T20:55:43.658Z,12.40
2018-04-07T20:58:11.320Z,13.10
2018-04-07T21:00:39.171Z,14.90
2018-04-07T21:03:07.024Z,12.40
2018-04-07T21:05:35.532Z,12.80
2018-04-07T21:08:03.231Z,10.57
2018-04-07T21:10:31.149Z,12.60
2018-04-07T21:12:59.534Z,12.43
2018-04-07T21:15:27.352Z,12.40
2018-04-07T21:17:54.867Z,12.47
2018-04-07T21:20:22.486Z,11.37
2018-04-07T21:22:50.206Z,11.97
2018-04-07T21:25:17.757Z,12.30
2018-04-07T21:27:45.805Z,12.63
2018-04-07T21:30:13.356Z,11.93
2018-04-07T21:32:40.968Z,12.60
2018-04-07T21:35:08.521Z,12.30
2018-04-07T21:37:36.282Z,11.10
2018-04-07T21:40:03.837Z,12.50
2018-04-07T21:42:31.460Z,11.67
2018-04-07T21:44:59.924Z,11.93
2018-04-07T21:47:27.510Z,12.37
2018-04-07T21:49:55.237Z,11.20
2018-04-07T21:55:13.302Z,11.23
2018-04-07T21:57:41.751Z,11.83
2018-04-07T22:00:09.346Z,11.17
2018-04-07T22:02:37.202Z,12.17
2018-04-07T22:05:04.928Z,11.27
2018-04-07T22:07:33.473Z,10.63
2018-04-07T22:10:01.758Z,10.47
2018-04-07T22:12:30.047Z,10.33
2018-04-07T22:14:57.697Z,10.53
2018-04-07T22:17:26.598Z,10.73
2018-04-07T22:19:54.115Z,10.17
2018-04-07T22:22:21.781Z,9.93
2018-04-07T22:24:49.434Z,10.07
2018-04-07T22:27:16.982Z,10.20
2018-04-07T22:29:44.519Z,10.20
2018-04-07T22:32:12.195Z,11.73
2018-04-07T22:34:39.799Z,9.50
2018-04-07T22:37:07.372Z,10.50
2018-04-07T22:39:35.122Z,9.83
2018-04-07T22:42:02.709Z,12.33
2018-04-07T22:44:30.990Z,9.97
2018-04-07T22:46:58.605Z,11.50
2018-04-07T22:49:26.235Z,10.07
2018-04-07T22:51:53.819Z,9.83
2018-04-07T22:54:21.584Z,9.43
2018-04-07T22:56:49.110Z,9.50
2018-04-07T22:59:16.617Z,9.00
2018-04-07T23:01:44.435Z,9.23
2018-04-07T23:04:11.952Z,8.30
2018-04-07T23:06:40.032Z,9.13
2018-04-07T23:09:07.763Z,8.60
2018-04-07T23:11:35.378Z,8.30
2018-04-07T23:14:02.948Z,8.00
2018-04-07T23:16:30.471Z,8.40
2018-04-07T23:18:57.987Z,8.10
2018-04-07T23:21:25.500Z,7.93
2018-04-07T23:23:53.931Z,8.60
2018-04-07T23:26:21.460Z,8.13
2018-04-07T23:28:49.077Z,8.00
2018-04-07T23:31:16.621Z,7.53
2018-04-07T23:33:44.353Z,8.30
2018-04-07T23:36:11.924Z,7.83
2018-04-07T23:38:39.469Z,7.73
2018-04-07T23:41:07.027Z,7.93
2018-04-07T23:43:34.989Z,10.50
2018-04-07T23:46:03.224Z,7.53
2018-04-07T23:48:30.958Z,7.77
2018-04-07T23:50:58.527Z,7.33
2018-04-07T23:53:26.050Z,8.00
2018-04-07T23:55:53.626Z,7.70
2018-04-07T23:58:21.203Z,7.30
